Terminal Aerodrome Forecast
Issued by NWS

Home | Current Version | Previous Version | Text Only | Print | Product List | Glossary On
Versions: 1 2 3 4 5 6 7 8 9 10 11 12 13 14 15 16 17 18 19 20 21 22
000
FTAK31 PANC 252322
TAFAEN
TAF
PAEN 252322Z 2600/2624 VRB03KT P6SM SCT100 OVC200
     FM260700 04004KT 2SM -SN BR BKN015
     FM261200 19007KT P6SM SCT030 BKN045
     FM261600 20012G20KT P6SM SCT045 BKN080=

USA.gov is the U.S. government's official web portal to all federal, state and local government web resources and services.